Right Now

Temperature THW Index 144.62°

95.29° 1.36

Humidity

92.32% 6.9

Dew Point

93.17° 0.55

Pressure

1021.55mb 0.04

Wind

6.37mph 1.15 NW

Rain

0"

Last 6 Hours

Filter Columns:
Timestamp Temp Ground Temp Est. Temp THW Index Wet Bulb Humidity Dew Point Pressure Wind Speed Wind Gust Lightning Rainfall
381347 7/13/2024 10:44am 95.29° F --° F 95.29° F 144.62° F 89.79° F 92.32% 93.17° F 1021.55mb 6.37mph NW 12.34mph 0 0.000"
381346 7/13/2024 10:39am 94.78° F --° F 94.78° F 154.87° F 90.43° F 100.00% 94.78° F 1021.55mb 4.48mph NW 10.30mph 0 0.000"
381345 7/13/2024 10:34am 94.08° F --° F 94.08° F 150.61° F 89.72° F 100.00% 94.08° F 1021.61mb 4.37mph NW 10.30mph 0 0.000"
381344 7/13/2024 10:29am 93.18° F --° F 93.18° F 144.68° F 88.82° F 100.00% 93.18° F 1021.59mb 4.78mph NW 10.30mph 0 0.000"
381343 7/13/2024 10:24am 93.63° F --° F 93.63° F 147.84° F 89.27° F 100.00% 93.63° F 1021.53mb 4.37mph NNW 8.92mph 0 0.000"
381342 7/13/2024 10:19am 94.42° F --° F 94.42° F 152.34° F 89.93° F 99.14% 94.19° F 1021.56mb 3.56mph NNW 8.92mph 0 0.000"
381341 7/13/2024 10:14am 94.80° F --° F 94.80° F 147.61° F 89.89° F 96.15% 93.76° F 1021.43mb 6.07mph NW 13.03mph 0 0.000"
381340 7/13/2024 10:09am 94.60° F --° F 94.60° F 145.63° F 89.69° F 96.14% 93.56° F 1021.57mb 6.80mph NW 12.34mph 0 0.000"
381339 7/13/2024 10:04am 94.26° F --° F 94.26° F 151.19° F 89.91° F 100.00% 94.26° F 1021.46mb 4.87mph NW 10.96mph 0 0.000"
381338 7/13/2024 9:59am 93.76° F --° F 93.76° F 146.38° F 89.40° F 100.00% 93.76° F 1021.40mb 6.48mph NW 10.96mph 0 0.000"
381337 7/13/2024 9:54am 93.24° F --° F 93.24° F 143.46° F 88.87° F 100.00% 93.24° F 1021.43mb 6.25mph WNW 12.34mph 0 0.000"
381336 7/13/2024 9:49am 92.48° F --° F 92.48° F 139.82° F 88.11° F 100.00% 92.48° F 1021.47mb 5.42mph NW 13.72mph 0 0.000"
381335 7/13/2024 9:44am 91.67° F --° F 91.67° F 134.69° F 87.30° F 100.00% 91.67° F 1021.47mb 5.82mph WNW 13.72mph 0 0.000"
381334 7/13/2024 9:39am 90.14° F --° F 90.14° F 126.93° F 85.75° F 100.00% 90.14° F 1021.52mb 5.10mph NW 12.34mph 0 0.000"
381333 7/13/2024 9:34am 90.59° F --° F 90.59° F 128.37° F 86.21° F 100.00% 90.59° F 1021.57mb 6.05mph NW 14.41mph 0 0.000"
381332 7/13/2024 9:28am 91.13° F --° F 91.13° F 131.00° F 86.75° F 100.00% 91.13° F 1021.48mb 6.41mph NW 15.77mph 0 0.000"
381331 7/13/2024 9:23am 92.34° F --° F 92.34° F 139.29° F 87.97° F 100.00% 92.34° F 1021.51mb 5.15mph WNW 14.41mph 0 0.000"
381330 7/13/2024 9:18am 91.89° F --° F 91.89° F 137.49° F 87.51° F 100.00% 91.89° F 1021.47mb 4.39mph NW 8.23mph 0 0.000"
381329 7/13/2024 9:13am 90.91° F --° F 90.91° F 131.04° F 86.53° F 100.00% 90.91° F 1021.45mb 5.22mph WNW 12.34mph 0 0.000"
381328 7/13/2024 9:08am 89.64° F --° F 89.64° F 124.85° F 85.25° F 100.00% 89.64° F 1021.52mb 4.53mph WNW 13.03mph 0 0.000"
381327 7/13/2024 9:03am 89.98° F --° F 89.98° F 125.54° F 85.59° F 100.00% 89.98° F 1021.50mb 5.59mph NW 13.03mph 0 0.000"
381326 7/13/2024 8:58am 90.70° F --° F 90.70° F 128.27° F 86.32° F 100.00% 90.70° F 1021.38mb 6.71mph NW 12.34mph 0 0.000"
381325 7/13/2024 8:53am 91.47° F --° F 91.47° F 133.34° F 87.10° F 100.00% 91.47° F 1021.29mb 6.02mph WNW 13.72mph 0 0.000"
381324 7/13/2024 8:48am 90.64° F --° F 90.64° F 130.18° F 86.26° F 100.00% 90.64° F 1021.36mb 4.62mph WNW 9.61mph 0 0.000"
381323 7/13/2024 8:43am 89.40° F --° F 89.40° F 122.43° F 85.01° F 100.00% 89.40° F 1021.32mb 5.59mph WNW 11.65mph 0 0.000"
381322 7/13/2024 8:38am 88.84° F --° F 88.84° F 120.52° F 84.45° F 100.00% 88.84° F 1021.38mb 4.64mph NW 9.61mph 0 0.000"
381321 7/13/2024 8:33am 89.44° F --° F 89.44° F 123.86° F 85.05° F 100.00% 89.44° F 1021.32mb 4.46mph NW 11.65mph 0 0.000"
381320 7/13/2024 8:28am 90.36° F --° F 90.36° F 130.10° F 85.97° F 100.00% 90.36° F 1021.34mb 3.26mph NW 7.54mph 0 0.000"
381319 7/13/2024 8:23am 89.98° F --° F 89.98° F 128.00° F 85.59° F 100.00% 89.98° F 1021.33mb 3.29mph WNW 6.18mph 0 0.000"
381318 7/13/2024 8:17am 89.04° F --° F 89.04° F 123.10° F 84.65° F 100.00% 89.04° F 1021.21mb 3.20mph NW 5.49mph 0 0.000"
381317 7/13/2024 8:12am 87.58° F --° F 87.58° F 117.34° F 83.18° F 100.00% 87.58° F 1021.12mb 1.66mph NNW 4.80mph 0 0.000"
381316 7/13/2024 8:07am 87.26° F --° F 87.26° F 115.21° F 82.85° F 100.00% 87.26° F 1021.11mb 2.18mph NNW 4.80mph 0 0.000"
381315 7/13/2024 8:02am 87.48° F --° F 87.48° F 116.82° F 83.07° F 100.00% 87.48° F 1021.09mb 1.68mph NNW 4.80mph 0 0.000"
381314 7/13/2024 7:57am 87.85° F --° F 87.85° F 119.11° F 83.45° F 100.00% 87.85° F 1020.98mb 1.26mph NNW 4.80mph 0 0.000"
381313 7/13/2024 7:52am 88.30° F --° F 88.30° F 120.75° F 83.91° F 100.00% 88.30° F 1020.88mb 1.84mph NW 4.11mph 0 0.000"
381312 7/13/2024 7:47am 87.49° F --° F 87.49° F 115.27° F 83.09° F 100.00% 87.49° F 1020.83mb 3.17mph WNW 6.18mph 0 0.000"
381311 7/13/2024 7:42am 85.96° F --° F 85.96° F 108.92° F 81.55° F 100.00% 85.96° F 1020.77mb 2.28mph NW 4.80mph 0 0.000"
381310 7/13/2024 7:37am 85.48° F --° F 85.48° F 107.42° F 81.06° F 100.00% 85.48° F 1020.72mb 1.63mph NNW 5.49mph 0 0.000"
381309 7/13/2024 7:32am 85.96° F --° F 85.96° F 110.92° F 81.55° F 100.00% 85.96° F 1020.58mb 0.41mph NNW 4.11mph 0 0.000"
381308 7/13/2024 7:27am 86.59° F --° F 86.59° F 113.39° F 82.18° F 100.00% 86.59° F 1020.62mb 0.87mph NNW 3.43mph 0 0.000"
381307 7/13/2024 7:22am 86.40° F --° F 86.40° F 113.27° F 81.98° F 100.00% 86.40° F 1020.60mb 0.14mph N 2.07mph 0 0.000"
381306 7/13/2024 7:17am 85.24° F --° F 85.24° F 108.01° F 80.82° F 100.00% 85.24° F 1020.51mb 0.07mph N 1.38mph 0 0.000"
381305 7/13/2024 7:12am 84.02° F --° F 84.02° F 102.74° F 79.59° F 100.00% 84.02° F 1020.40mb 0.00mph -- 0.69mph 0 0.000"
381304 7/13/2024 7:07am 84.36° F --° F 84.36° F 104.20° F 79.94° F 100.00% 84.36° F 1020.38mb 0.00mph -- 0.69mph 0 0.000"
381303 7/13/2024 7:01am 84.83° F --° F 84.83° F 106.26° F 80.41° F 100.00% 84.83° F 1020.19mb 0.00mph -- 0.69mph 0 0.000"
381302 7/13/2024 6:56am 85.50° F --° F 85.50° F 109.26° F 81.08° F 100.00% 85.50° F 1020.13mb 0.00mph -- 0.00mph 0 0.000"
381301 7/13/2024 6:51am 85.66° F --° F 85.66° F 108.50° F 81.24° F 100.00% 85.66° F 1020.07mb 1.38mph NNW 3.43mph 0 0.000"
381300 7/13/2024 6:46am 84.56° F --° F 84.56° F 102.32° F 80.13° F 100.00% 84.56° F 1019.97mb 2.57mph NNW 4.11mph 0 0.000"
381299 7/13/2024 6:41am 83.79° F --° F 83.79° F 101.72° F 79.36° F 100.00% 83.79° F 1019.93mb 0.05mph N 1.38mph 0 0.000"
381298 7/13/2024 6:36am 84.22° F --° F 84.22° F 103.60° F 79.79° F 100.00% 84.22° F 1019.86mb 0.00mph -- 0.00mph 0 0.000"
381297 7/13/2024 6:31am 84.79° F --° F 84.79° F 104.94° F 80.37° F 100.00% 84.79° F 1019.83mb 1.06mph NNW 3.43mph 0 0.000"
381296 7/13/2024 6:26am 85.46° F --° F 85.46° F 108.43° F 81.04° F 100.00% 85.46° F 1019.82mb 0.60mph NNW 3.43mph 0 0.000"
381295 7/13/2024 6:21am 84.97° F --° F 84.97° F 105.10° F 80.55° F 100.00% 84.97° F 1019.81mb 1.66mph NNW 3.43mph 0 0.000"
381294 7/13/2024 6:16am 83.68° F --° F 83.68° F 101.31° F 79.25° F 100.00% 83.68° F 1019.76mb 0.00mph -- 0.00mph 0 0.000"
381293 7/13/2024 6:11am 83.23° F --° F 83.23° F 99.44° F 78.79° F 100.00% 83.23° F 1019.71mb 0.00mph -- 0.00mph 0 0.000"
381292 7/13/2024 6:06am 83.62° F --° F 83.62° F 101.06° F 79.19° F 100.00% 83.62° F 1019.79mb 0.00mph -- 0.69mph 0 0.000"
381291 7/13/2024 6:01am 84.06° F --° F 84.06° F 102.92° F 79.63° F 100.00% 84.06° F 1019.82mb 0.00mph -- 0.00mph 0 0.000"
381290 7/13/2024 5:56am 84.65° F --° F 84.65° F 105.46° F 80.23° F 100.00% 84.65° F 1019.63mb 0.00mph -- 0.00mph 0 0.000"
381289 7/13/2024 5:51am 85.32° F --° F 85.32° F 108.44° F 80.90° F 100.00% 85.32° F 1019.61mb 0.00mph -- 0.00mph 0 0.000"
381288 7/13/2024 5:46am 85.28° F --° F 85.28° F 108.26° F 80.86° F 100.00% 85.28° F 1019.49mb 0.00mph -- 0.00mph 0 0.000"
381287 7/13/2024 5:41am 84.63° F --° F 84.63° F 105.38° F 80.21° F 100.00% 84.63° F 1019.56mb 0.00mph -- 0.00mph 0 0.000"
381286 7/13/2024 5:36am 84.15° F --° F 84.15° F 103.30° F 79.72° F 100.00% 84.15° F 1019.47mb 0.00mph -- 0.00mph 0 0.000"
381285 7/13/2024 5:31am 84.67° F --° F 84.67° F 105.08° F 80.24° F 100.00% 84.67° F 1019.49mb 0.44mph N 3.43mph 0 0.000"
381284 7/13/2024 5:25am 85.35° F --° F 85.35° F 107.29° F 80.93° F 100.00% 85.35° F 1019.36mb 1.20mph N 3.43mph 0 0.000"
381283 7/13/2024 5:20am 85.93° F --° F 85.93° F 108.83° F 81.51° F 100.00% 85.93° F 1019.25mb 2.23mph NNW 3.43mph 0 0.000"
381282 7/13/2024 5:15am 85.33° F --° F 85.33° F 108.49° F 80.91° F 100.00% 85.33° F 1019.26mb 0.00mph -- 0.69mph 0 0.000"
381281 7/13/2024 5:10am 84.16° F --° F 84.16° F 103.34° F 79.74° F 100.00% 84.16° F 1019.26mb 0.00mph -- 0.00mph 0 0.000"
381280 7/13/2024 5:05am 83.97° F --° F 83.97° F 102.53° F 79.54° F 100.00% 83.97° F 1019.27mb 0.00mph -- 0.00mph 0 0.000"
381279 7/13/2024 5:00am 84.40° F --° F 84.40° F 104.38° F 79.97° F 100.00% 84.40° F 1019.24mb 0.00mph -- 0.00mph 0 0.000"
381278 7/13/2024 4:55am 84.94° F --° F 84.94° F 106.74° F 80.52° F 100.00% 84.94° F 1019.06mb 0.00mph -- 0.00mph 0 0.000"
381277 7/13/2024 4:50am 85.62° F --° F 85.62° F 109.80° F 81.20° F 100.00% 85.62° F 1019.13mb 0.00mph -- 0.00mph 0 0.000"